Gastonia, NC

10:18 PM EST on November 25, 2014 (GMT -0500)
Edgewood Road Gastonia NC | Change Station
CLOSE
Current Station
Personal Weather Station
Location: Bessemer City, NC
Elevation: 783 ft
Nearby Weather Stations

Elev 783 ft 35.26 °N, 81.26 °W | Updated 11 minutes ago

Rain
Rain
52.2 °F
Feels Like 52.2 °F
N
0.0
Wind Variable Wind from NNE
Gusts 2.0 mph

Today
High -- | Low -- °F
--% Chance of Precip.
Yesterday
High -- | Low -- °F
Precip. -- in
7:09 AM 5:14 PM
Waxing Crescent, 16% visible
Pressure 30.07 in
Visibility 9.0 miles
Clouds Few 4100 ft
Overcast 7000 ft
Dew Point 45 °F
Humidity 75%
Rainfall 0.00 in
Snow Depth Not available.
UV 0.0 out of 12
Pollen 1.60 out of 12
Air Quality Not available.
Flu Activity Not available.
METAR KAKH 260254Z AUTO 00000KT 9SM -RA FEW041 OVC070 10/07 A3007 RMK AO2 RAB0157 SLP182 P0001 60001 T01000067 53011

More Conditions Fewer Conditions

Pressure 30.07 in
Visibility 9.0 miles
Clouds Few 4100 ft
Overcast 7000 ft
Dew Point 45 °F
Humidity 75%
Rainfall 0.00 in
Snow Depth Not available.
UV 0.0 out of 12
Pollen 1.60 out of 12
Air Quality Not available.
Flu Activity Not available.
METAR KAKH 260254Z AUTO 00000KT 9SM -RA FEW041 OVC070 10/07 A3007 RMK AO2 RAB0157 SLP182 P0001 60001 T01000067 53011

More Conditions Fewer Conditions

10-Day Weather Forecast

Almanac

Astronomy

Nov. 25, 2014 Rise Set
Actual Time
Civil Twilight
Nautical Twilight
Astronomical Twilight
Moon
Length of Visible Light
Length of Day
Tomorrow will be .
, % of the Moon is Illuminated

Today's Extremes

State Highs State Lows

Community

WunderPhotos

Upload Photos

1,773,666 photos uploaded!

WunderBlogs® & News

Nearby

Air Quality

  Air Quality AQ Index Pollutant
Not available.

Snow Depth

Station Depth Elevation

Earthquake Activity

City Distance Mag. Time & Date
Minimum magnitude displayed is 2.5.

Coastal Water Temperatures

Place Temperature

Nearby Weather Stations